x

New York Harbor Entrance - 15 Nm Se Of Breezy Point , Ny (44065) Wave Buoy

1:50am - Wed 1st Jul 2015 All times are EDT. -4 hours from GMT.

  • Sig Wave height 3.6ft
  • Swell Direction
  • Peak Period 5s
  • Average Period 5s
  • Wind
    16mph, 18mph gusts
  • Sea Temp 68°f
  • Air Temp 71°f
  • Sea Pressure 1008.6mb
  • New York Harbor Entrance - 15 Nm Se Of Breezy Point , Ny
  • New York Harbor Entrance - 15 Nm Se Of Breezy Point , Ny

More Historic Weather Station data

Upgrade to MSW Pro to gain access to the past 30 days of data for over 8000 Wavebouys and Weather Stations around the globe.

Join Pro

Comparision Forecast

View Surf forecast
   
Wed 07/01 1:50am 3.5ft 5s 5s 16 18 mph 1008.6mb 68f 71f
12:50am 3.5ft 5s 4s 16 20 mph 1009.9mb 68f 71f
Tue 06/30 11:50pm 3.5ft 5s 4s 18 20 mph 1010.3mb 68f 71f
10:50pm 3.5ft 5s 4s 16 20 mph 1011.4mb 68f 71f
9:50pm 3.5ft 4s 5s 16 18 mph 1011.3mb 68f 70f
8:50pm 3.5ft 8s 5s 13 16 mph 1011.5mb 68f 70f
7:50pm 3.5ft 4s 4s 16 20 mph 1011.4mb 69f 70f
6:50pm 3ft 8s 4s 16 18 mph 1011.3mb 69f 70f
5:50pm 3.5ft 8s 5s 18 20 mph 1011.2mb 69f 70f
4:50pm 3ft 8s 5s 16 18 mph 1012.1mb 69f 70f
3:50pm 3ft 7s 4s 16 18 mph 1012.7mb 69f 70f
2:50pm 3ft 8s 5s 13 16 mph 1013.3mb 69f 70f
1:50pm 2.5ft 7s 5s 13 16 mph 1013.8mb 69f 70f
12:50pm 2.5ft 8s 5s 13 16 mph 1014.4mb 69f 71f
11:50am 2.5ft 8s 5s 11 13 mph 1014.7mb 69f 70f
10:50am 2.5ft 8s 5s 11 13 mph 1014.8mb 69f 70f
9:50am 2.5ft 8s 6s 11
mph
1015.2mb 69f 69f
8:50am 2.5ft 7s 6s 7
mph
1014.8mb 68f 69f
7:50am 2.5ft 8s 6s 7
mph
1015mb 68f 69f
6:50am 2.5ft 8s 6s 7 9 mph 1014.7mb 68f 69f
5:50am 2.5ft 8s 6s 9
mph
1014.3mb 68f 68f
4:50am 2.5ft 7s 5s 7 9 mph 1013.9mb 68f 68f
3:50am 2.5ft 8s 5s 7
mph
1013.9mb 68f 68f
2:50am 2.5ft 9s 5s 11
mph
1014.2mb 68f 69f
1:50am 2.5ft 8s 5s 11 13 mph 1014.2mb 68f 69f
12:50am 2.5ft 7s 6s 11 13 mph 1014mb 68f 69f
Mon 06/29 11:50pm 2.5ft 9s 6s 11 13 mph 1014.1mb 68f 70f
10:50pm 3ft 7s 6s 11 13 mph 1014.3mb 69f 70f
9:50pm 3ft 8s 6s 7 9 mph 1014mb 69f 70f
8:50pm 3.5ft 8s 6s 7
mph
1013.1mb 69f 70f
7:50pm 3.5ft 8s 6s 7 9 mph 1013mb 69f 71f
6:50pm 3.5ft 8s 6s 4 7 mph 1013mb 69f 71f
5:50pm 3.5ft 9s 6s 4 7 mph 1012.8mb 69f 72f
4:50pm 3.5ft 9s 6s 7
mph
1012.5mb 69f 70f
3:50pm 3.5ft 9s 7s 4 7 mph 1012.5mb 69f 70f
2:50pm 3.5ft 8s 6s 7 9 mph 1012.6mb 69f 69f
1:50pm 3.5ft 9s 6s 4
mph
1012.6mb 69f 69f
12:50pm 3.5ft 10s 6s 2 4 mph 1012.5mb 68f 69f
11:50am 4ft 10s 6s 11 13 mph 1012.6mb 67f 69f
10:50am 3.5ft 9s 5s 13 16 mph 1012.3mb 67f 68f
9:50am 4.5ft 9s 6s 13 16 mph 1011.8mb 67f 67f
8:50am 4ft 10s 5s 18 20 mph 1011.5mb 67f 66f
7:50am 4.5ft 10s 5s 18 22 mph 1010.9mb 67f 65f
6:50am 4.5ft 9s 6s 18 22 mph 1010.8mb 67f 65f
5:50am 4.5ft 9s 6s 20 25 mph 1010.1mb 67f 65f
4:50am 5ft 9s 6s 20 25 mph 1009.4mb 67f 66f
3:50am 5ft 9s 6s 20 25 mph 1008.9mb 67f 67f
2:50am 5ft 9s 6s 20 25 mph 1008mb 68f 68f
1:50am 5ft 9s 6s 18 22 mph 1007.5mb 68f 69f
12:50am 4.5ft 9s 7s 16 18 mph 1007.3mb 68f 70f
Sun 06/28 11:50pm 5ft 9s 7s 11 16 mph 1007.2mb 68f 70f
10:50pm 5ft 8s 7s 11 13 mph 1007.4mb 68f 71f
9:50pm 5.5ft 9s 7s 7 9 mph 1007.5mb 68f 69f
8:50pm 6ft 9s 7s 11
mph
1007mb 68f 70f
7:50pm 6ft 8s 7s 11 13 mph 1006.8mb 68f 69f
6:50pm 6.5ft 9s 7s 9 11 mph 1006.2mb 68f 69f
5:50pm 5.5ft 8s 7s 9 11 mph 1005.5mb 69f 68f
4:50pm 5.5ft 8s 7s 2 4 mph 1005mb 69f 68f
3:50pm 5ft 8s 6s 2 4 mph 1005.2mb 68f 67f
2:50pm 5ft 7s 6s 7 9 mph 1004.7mb 68f 66f
1:50pm 5ft 8s 6s 9 11 mph 1004.6mb 68f 65f
12:50pm 5ft 8s 6s 9 11 mph 1004.4mb 67f 64f
11:50am 6ft 8s 6s 7 9 mph 1004.3mb 67f 64f
10:50am 6ft 8s 6s 13 16 mph 1003.3mb 67f 64f
9:50am 6ft 8s 6s 16 18 mph 1003.2mb 67f 64f
8:50am 7ft 8s 6s 16 18 mph 1003.5mb 67f 66f
7:50am 6.5ft 8s 6s 13 16 mph 1003.3mb 67f 66f
6:50am 6ft 8s 6s 11 13 mph 1003.1mb 67f 66f
5:50am 7ft 7s 6s 7 9 mph 1003.1mb 67f 67f
4:50am 7ft 7s 6s 7 11 mph 1003.2mb 67f 69f
3:50am 7ft 8s 6s 7 11 mph 1003.5mb 66f 69f
2:50am 8.5ft 7s 6s 16 18 mph 1004.4mb 66f 67f
1:50am 8.5ft 7s 6s 27 34 mph 1005.3mb 66f 67f
12:50am 8ft 7s 5s 25 36 mph 1007mb 67f 67f
Sat 06/27 11:50pm 7.5ft 7s 5s 31 36 mph 1008.1mb 67f 66f
10:50pm 7.5ft 7s 5s 34 40 mph 1009.4mb 67f 66f
9:50pm 7ft 7s 5s 34 43 mph 1010.1mb 68f 66f
8:50pm 6ft 6s 5s 29 38 mph 1012.4mb 68f 67f
7:50pm 6ft 6s 5s 25 31 mph 1013.6mb 69f 68f
6:50pm 5.5ft 5s 5s 27 31 mph 1013.7mb 69f 68f
5:50pm 5ft 6s 5s 27 31 mph 1014.5mb 70f 68f
4:50pm 5ft 6s 5s 27 34 mph 1014.6mb 70f 68f
3:50pm 4.5ft 5s 5s 22 27 mph 1016.5mb 71f 68f
2:50pm 4.5ft 6s 4s 20 25 mph 1017.4mb 71f 68f
1:50pm 4.5ft 5s 4s 18 22 mph 1018.5mb 71f 68f
12:50pm 4.5ft 5s 4s 18 22 mph 1018.7mb 71f 69f
11:50am 3.5ft 4s 4s 22 27 mph 1018.1mb 71f 69f
10:50am 3.5ft 6s 4s 20 22 mph 1018.2mb 71f 69f
9:50am 3ft 6s 4s 16 20 mph 1019.2mb 71f 69f
8:50am 3ft 7s 5s 13 18 mph 1019.6mb 71f 69f
7:50am 2.5ft 7s 5s 16 18 mph 1019.3mb 71f 69f